»·PEaware :: DAL53 KAMA-KLAM

DAL53 :: KAMA-KLAM

FLIGHT INFORMATION

Flight Status: Arrived
Operator:
Delta Air Lines
More flights by this operator :: More flights under this callsign
Pilot: Matthew D. (16794)
Aircraft: FOKKER 50 MARITIME ENFORCER
(F50)
More flights by this aircraft type
Origin: KAMA Amarillo Intl
United States
Destination: KLAM Los Alamos
United States
More flights between these airports :: More routes between these airports
Route: PNH J58 FTI
File this flight plan on PilotEdge
Remarks: RMK / SIMBRIEF
Altitude:
(Current/Filed)
18,000ft
Speed:
(Current/Filed)
264kts
Departed: 28-Mar-19 07:36 AM
Arrived: 28-Mar-19 08:38 AM
Distance/Time
Traveled:
225nm/1:02
Distance/Time
To Go:
Arrived

Flight Plot

Page will automatically refresh every two minutes.

Flight plan parsing failed; only flown route is shown


Map Options




Map Legend


Flown Route
Filed Route
Departure Airport
Arrival Airport
Navaid (VOR, NDB)
Fix

Horizontal Profiles

Position Reports

Time Latitude Longitude Heading Altitude Ground
Speed
28-Mar-19 07:11 35.219072 -101.706451 145 3613ft 0kts
28-Mar-19 07:12 35.219072 -101.706451 145 3613ft 0kts
28-Mar-19 07:13 35.219072 -101.706451 145 3613ft 0kts
28-Mar-19 07:14 35.219072 -101.706451 145 3613ft 0kts
28-Mar-19 07:15 35.219072 -101.706451 145 3613ft 0kts
28-Mar-19 07:16 35.219072 -101.706451 145 3613ft 0kts
28-Mar-19 07:17 35.219072 -101.706451 145 3613ft 0kts
28-Mar-19 07:18 35.219072 -101.706451 145 3613ft 0kts
28-Mar-19 07:19 35.219072 -101.706451 145 3613ft 0kts
28-Mar-19 07:20 35.219072 -101.706451 145 3613ft 0kts
28-Mar-19 07:22 35.219524 -101.707139 67 3613ft 3kts
28-Mar-19 07:23 35.219478 -101.707238 60 3613ft 0kts
28-Mar-19 07:24 35.219535 -101.707162 37 3613ft 2kts
28-Mar-19 07:25 35.219751 -101.707094 6 3613ft 0kts
28-Mar-19 07:26 35.219751 -101.707094 6 3613ft 0kts
28-Mar-19 07:27 35.220499 -101.707142 319 3613ft 6kts
28-Mar-19 07:28 35.222227 -101.705889 45 3613ft 10kts
28-Mar-19 07:29 35.223997 -101.703678 45 3613ft 6kts
28-Mar-19 07:30 35.224578 -101.702939 46 3613ft 5kts
28-Mar-19 07:31 35.225602 -101.701640 44 3613ft 11kts
28-Mar-19 07:32 35.227806 -101.698877 45 3613ft 5kts
28-Mar-19 07:33 35.228959 -101.698248 331 3613ft 3kts
28-Mar-19 07:34 35.229998 -101.699411 315 3613ft 0kts
28-Mar-19 07:35 35.230596 -101.700125 308 3613ft 11kts
28-Mar-19 07:36 35.218215 -101.716165 225 4329ft 119kts
28-Mar-19 07:37 35.194800 -101.747694 228 5689ft 173kts
28-Mar-19 07:38 35.170148 -101.799713 277 6802ft 192kts
28-Mar-19 07:39 35.179153 -101.864116 277 8005ft 193kts
28-Mar-19 07:40 35.189469 -101.928863 278 9434ft 195kts
28-Mar-19 07:41 35.199878 -101.994042 278 10933ft 197kts
28-Mar-19 07:42 35.210398 -102.060093 278 12436ft 199kts
28-Mar-19 07:43 35.221034 -102.127072 278 13931ft 203kts
28-Mar-19 07:44 35.231870 -102.195649 278 15428ft 207kts
28-Mar-19 07:45 35.242914 -102.265804 278 16927ft 211kts
28-Mar-19 07:45 35.252216 -102.325144 278 18036ft 220kts
28-Mar-19 07:47 35.266721 -102.418085 278 18048ft 241kts
28-Mar-19 07:48 35.279234 -102.498543 278 18048ft 241kts
28-Mar-19 07:49 35.291716 -102.579246 278 18047ft 241kts
28-Mar-19 07:50 35.304176 -102.660173 278 18051ft 241kts
28-Mar-19 07:50 35.314457 -102.727233 278 18052ft 241kts
28-Mar-19 07:52 35.329818 -102.828013 278 18035ft 270kts
28-Mar-19 07:52 35.341452 -102.904572 278 18019ft 276kts
28-Mar-19 07:53 35.355405 -102.997014 278 18005ft 276kts
28-Mar-19 07:54 35.369290 -103.089507 279 18005ft 275kts
28-Mar-19 07:55 35.383024 -103.181451 280 18005ft 274kts
28-Mar-19 07:57 35.398130 -103.282873 280 18004ft 234kts
28-Mar-19 07:57 35.408189 -103.350947 280 18003ft 243kts
28-Mar-19 07:58 35.420262 -103.432965 280 18003ft 244kts
28-Mar-19 07:59 35.432248 -103.514802 280 18003ft 244kts
28-Mar-19 08:00 35.444154 -103.596500 280 18002ft 243kts
28-Mar-19 08:01 35.456038 -103.678476 279 18007ft 244kts
28-Mar-19 08:02 35.467871 -103.760455 279 18007ft 243kts
28-Mar-19 08:03 35.479624 -103.842302 279 18006ft 243kts
28-Mar-19 08:04 35.491305 -103.924064 279 18006ft 243kts
28-Mar-19 08:05 35.502936 -104.005887 279 18005ft 243kts
28-Mar-19 08:06 35.514549 -104.087983 279 18005ft 243kts
28-Mar-19 08:07 35.526092 -104.170027 279 18005ft 243kts
28-Mar-19 08:08 35.537653 -104.252594 279 18031ft 244kts
28-Mar-19 08:09 35.549119 -104.334923 279 18061ft 244kts
28-Mar-19 08:10 35.560523 -104.417230 279 18093ft 244kts
28-Mar-19 08:11 35.571883 -104.499654 279 18112ft 244kts
28-Mar-19 08:12 35.583188 -104.582103 279 18133ft 244kts
28-Mar-19 08:13 35.594421 -104.664464 279 18153ft 244kts
28-Mar-19 08:14 35.605629 -104.747045 279 18153ft 244kts
28-Mar-19 08:15 35.616736 -104.829352 279 18153ft 244kts
28-Mar-19 08:16 35.627812 -104.911833 279 18152ft 244kts
28-Mar-19 08:17 35.638802 -104.994138 279 18152ft 244kts
28-Mar-19 08:18 35.649704 -105.076220 278 18151ft 243kts
28-Mar-19 08:19 35.662348 -105.158106 282 18151ft 244kts
28-Mar-19 08:20 35.678406 -105.239259 283 18150ft 243kts
28-Mar-19 08:21 35.694599 -105.320404 283 18149ft 243kts
28-Mar-19 08:22 35.710769 -105.401625 283 18149ft 243kts
28-Mar-19 08:23 35.725483 -105.482890 272 18143ft 243kts
28-Mar-19 08:24 35.725545 -105.564465 270 17439ft 222kts
28-Mar-19 08:25 35.736020 -105.638691 309 16388ft 229kts
28-Mar-19 08:26 35.751755 -105.703188 258 15342ft 213kts
28-Mar-19 08:27 35.740539 -105.771611 261 15178ft 205kts
28-Mar-19 08:28 35.730600 -105.840475 271 15184ft 203kts
28-Mar-19 08:29 35.729030 -105.910373 268 15001ft 201kts
28-Mar-19 08:30 35.725730 -105.979470 267 15000ft 203kts
28-Mar-19 08:31 35.740232 -106.041242 324 14660ft 216kts
28-Mar-19 08:32 35.803018 -106.076337 316 11395ft 234kts
28-Mar-19 08:33 35.844740 -106.129407 309 9884ft 202kts
28-Mar-19 08:34 35.863535 -106.176867 284 8673ft 99kts
28-Mar-19 08:35 35.868328 -106.204840 283 7799ft 88kts
28-Mar-19 08:36 35.874571 -106.232203 295 6955ft 73kts
28-Mar-19 08:37 35.877332 -106.240214 276 6562ft 0kts
28-Mar-19 08:38 35.877332 -106.240214 276 6562ft 0kts

Navigation Log

Ident Type
Flight plan parsing failed, navigation log unavailable